createdAt,value
2018-07-17T00:00:50.642Z,0.00
2018-07-17T00:01:50.613Z,0.00
2018-07-17T00:02:50.593Z,0.00
2018-07-17T00:03:50.549Z,0.00
2018-07-17T00:04:50.523Z,0.00
2018-07-17T00:05:50.505Z,0.00
2018-07-17T00:06:50.459Z,0.00
2018-07-17T00:07:50.428Z,0.00
2018-07-17T00:08:50.397Z,0.00
2018-07-17T00:09:50.363Z,0.00
2018-07-17T00:10:50.336Z,0.00
2018-07-17T00:11:50.318Z,0.00
2018-07-17T00:12:50.279Z,0.00
2018-07-17T00:13:50.244Z,0.00
2018-07-17T00:14:50.213Z,0.00
2018-07-17T00:15:50.178Z,0.00
2018-07-17T00:16:50.146Z,0.00
2018-07-17T00:17:50.139Z,0.00
2018-07-17T00:18:50.084Z,0.00
2018-07-17T00:19:50.058Z,0.00
2018-07-17T00:20:50.030Z,0.00
2018-07-17T00:21:49.998Z,0.00
2018-07-17T00:22:49.969Z,0.00
2018-07-17T00:23:49.930Z,0.00
2018-07-17T00:24:49.914Z,0.00
2018-07-17T00:25:49.874Z,0.00
2018-07-17T00:26:49.841Z,0.00
2018-07-17T00:27:49.811Z,0.00
2018-07-17T00:28:49.777Z,0.00
2018-07-17T00:29:49.753Z,0.00
2018-07-17T00:30:49.719Z,0.00
2018-07-17T00:31:49.694Z,0.00
2018-07-17T00:32:49.658Z,0.00
2018-07-17T00:33:49.620Z,0.00
2018-07-17T00:34:49.594Z,0.00
2018-07-17T00:35:49.559Z,0.00
2018-07-17T00:36:49.535Z,0.00
2018-07-17T00:37:49.512Z,0.00
2018-07-17T00:38:49.475Z,0.00
2018-07-17T00:39:49.437Z,0.00
2018-07-17T00:40:49.410Z,0.00
2018-07-17T00:41:49.379Z,0.00
2018-07-17T00:42:49.417Z,0.00
2018-07-17T00:43:49.320Z,0.00
2018-07-17T00:44:49.285Z,0.00
2018-07-17T00:45:49.256Z,0.00
2018-07-17T00:46:49.219Z,0.00
2018-07-17T00:47:49.195Z,0.00
2018-07-17T00:48:49.176Z,0.00
2018-07-17T00:49:49.132Z,0.00
2018-07-17T00:50:49.100Z,0.00
2018-07-17T00:51:49.065Z,0.00
2018-07-17T00:52:49.033Z,0.00
2018-07-17T00:53:49.008Z,0.00
2018-07-17T00:54:48.974Z,0.00
2018-07-17T00:55:48.944Z,0.00
2018-07-17T00:56:48.928Z,0.00
2018-07-17T00:57:48.888Z,0.00
2018-07-17T00:58:48.850Z,0.00
2018-07-17T00:59:48.820Z,0.00
2018-07-17T01:00:48.793Z,0.00
2018-07-17T01:01:48.763Z,0.00
2018-07-17T01:02:48.740Z,0.00
2018-07-17T01:03:48.699Z,0.00
2018-07-17T01:04:48.664Z,0.00
2018-07-17T01:05:48.637Z,0.00
2018-07-17T01:06:48.607Z,0.00
2018-07-17T01:07:48.576Z,0.00
2018-07-17T01:08:48.540Z,0.00
2018-07-17T01:09:48.521Z,0.00
2018-07-17T01:10:48.484Z,0.00
2018-07-17T01:11:49.165Z,0.00
2018-07-17T01:12:48.419Z,0.00
2018-07-17T01:13:48.389Z,0.00
2018-07-17T01:14:48.357Z,0.00
2018-07-17T01:15:48.325Z,0.00
2018-07-17T01:16:48.305Z,0.00
2018-07-17T01:17:48.265Z,0.00
2018-07-17T01:18:48.234Z,0.00
2018-07-17T01:19:48.203Z,0.00
2018-07-17T01:20:48.169Z,0.00
2018-07-17T01:21:48.141Z,0.00
2018-07-17T01:22:48.107Z,0.00
2018-07-17T01:23:48.087Z,0.00
2018-07-17T01:24:48.050Z,0.00
2018-07-17T01:25:48.017Z,0.00
2018-07-17T01:26:47.983Z,0.00
2018-07-17T01:27:47.951Z,0.00
2018-07-17T01:28:47.926Z,0.00
2018-07-17T01:29:48.567Z,0.00
2018-07-17T01:30:47.858Z,0.00
2018-07-17T01:31:47.833Z,0.00
2018-07-17T01:32:47.797Z,0.00
2018-07-17T01:33:47.763Z,0.00
2018-07-17T01:34:47.738Z,0.00
2018-07-17T01:35:47.700Z,0.00
2018-07-17T01:36:47.673Z,0.00
2018-07-17T01:37:47.642Z,0.00
2018-07-17T01:38:47.642Z,0.00
2018-07-17T01:39:47.583Z,0.00
2018-07-17T01:40:47.557Z,0.00
2018-07-17T01:41:47.523Z,0.00
2018-07-17T01:42:47.491Z,0.00
2018-07-17T01:43:47.455Z,0.00
2018-07-17T01:44:47.426Z,0.00
2018-07-17T01:45:47.399Z,0.00
2018-07-17T01:46:47.359Z,0.00
2018-07-17T01:47:47.328Z,0.00
2018-07-17T01:48:47.300Z,0.00
2018-07-17T01:49:47.434Z,0.00
2018-07-17T01:50:47.261Z,0.00
2018-07-17T01:51:47.210Z,0.00
2018-07-17T01:52:47.181Z,0.00
2018-07-17T01:53:47.143Z,0.00
2018-07-17T01:54:47.113Z,0.00
2018-07-17T01:55:47.081Z,0.00
2018-07-17T01:56:47.050Z,0.00
2018-07-17T01:57:47.026Z,0.00
2018-07-17T01:58:46.998Z,0.00
2018-07-17T01:59:46.958Z,0.00
2018-07-17T02:00:46.935Z,0.00
2018-07-17T02:01:46.897Z,0.00
2018-07-17T02:02:46.865Z,0.00
2018-07-17T02:03:46.835Z,0.00
2018-07-17T02:04:46.812Z,0.00
2018-07-17T02:05:46.780Z,0.00
2018-07-17T02:06:46.744Z,0.00
2018-07-17T02:07:46.712Z,0.00
2018-07-17T02:08:46.678Z,0.00
2018-07-17T02:09:46.651Z,0.00
2018-07-17T02:10:46.616Z,0.00
2018-07-17T02:11:46.589Z,0.00
2018-07-17T02:12:46.557Z,0.00
2018-07-17T02:13:46.553Z,0.00
2018-07-17T02:14:46.496Z,0.00
2018-07-17T02:15:46.468Z,0.00
2018-07-17T02:16:46.434Z,0.00
2018-07-17T02:17:46.404Z,0.00
2018-07-17T02:18:46.433Z,0.00
2018-07-17T02:19:46.341Z,0.00
2018-07-17T02:20:46.309Z,0.00
2018-07-17T02:21:46.277Z,0.00
2018-07-17T02:22:46.247Z,0.00
2018-07-17T02:23:46.214Z,0.00
2018-07-17T02:24:46.431Z,0.00
2018-07-17T02:25:46.157Z,0.00
2018-07-17T02:26:46.151Z,0.00
2018-07-17T02:27:46.093Z,0.00
2018-07-17T02:28:46.063Z,0.00
2018-07-17T02:29:46.029Z,0.00
2018-07-17T02:30:46.001Z,0.00
2018-07-17T02:31:45.972Z,0.00
2018-07-17T02:32:45.939Z,0.00
2018-07-17T02:33:45.913Z,0.00
2018-07-17T02:34:45.881Z,0.00
2018-07-17T02:35:45.843Z,0.00
2018-07-17T02:36:45.813Z,0.00
2018-07-17T02:37:45.781Z,0.00
2018-07-17T02:38:45.750Z,0.00
2018-07-17T02:39:45.728Z,0.00
2018-07-17T02:40:45.688Z,0.00
2018-07-17T02:41:45.659Z,0.00
2018-07-17T02:42:45.625Z,0.00
2018-07-17T02:43:45.598Z,0.00
2018-07-17T02:44:45.560Z,0.00
2018-07-17T02:45:45.550Z,0.00
2018-07-17T02:46:45.499Z,0.00
2018-07-17T02:47:45.465Z,0.00
2018-07-17T02:48:45.435Z,0.00
2018-07-17T02:49:45.404Z,0.00
2018-07-17T02:50:45.375Z,0.00
2018-07-17T02:51:45.352Z,0.00
2018-07-17T02:52:45.308Z,0.00
2018-07-17T02:53:45.288Z,0.00
2018-07-17T02:54:45.248Z,0.00
2018-07-17T02:55:45.217Z,0.00
2018-07-17T02:56:45.182Z,0.00
2018-07-17T02:57:45.151Z,0.00
2018-07-17T02:58:45.128Z,0.00
2018-07-17T02:59:45.091Z,0.00
2018-07-17T03:00:45.059Z,0.00
2018-07-17T03:01:45.033Z,0.00
2018-07-17T03:02:44.997Z,0.00
2018-07-17T03:03:44.964Z,0.00
2018-07-17T03:04:44.932Z,0.00
2018-07-17T03:05:44.912Z,0.00
2018-07-17T03:06:44.866Z,0.00
2018-07-17T03:07:45.024Z,0.00
2018-07-17T03:08:44.811Z,0.00
2018-07-17T03:09:44.832Z,4.00
2018-07-17T03:10:44.744Z,4.00
2018-07-17T03:11:44.733Z,4.00
2018-07-17T03:12:44.683Z,0.00
2018-07-17T03:13:44.658Z,4.00
2018-07-17T03:14:44.618Z,4.00
2018-07-17T03:15:44.590Z,4.00
2018-07-17T03:16:44.561Z,4.00
2018-07-17T03:17:44.539Z,8.00
2018-07-17T03:18:44.497Z,4.00
2018-07-17T03:19:44.464Z,8.00
2018-07-17T03:20:44.433Z,8.00
2018-07-17T03:21:44.402Z,12.00
2018-07-17T03:22:44.398Z,12.00
2018-07-17T03:23:44.358Z,12.00
2018-07-17T03:24:44.396Z,12.00
2018-07-17T03:25:44.276Z,16.00
2018-07-17T03:26:44.239Z,20.00
2018-07-17T03:27:44.206Z,20.00
2018-07-17T03:28:44.180Z,20.00
2018-07-17T03:29:44.153Z,24.00
2018-07-17T03:30:44.118Z,24.00
2018-07-17T03:31:44.091Z,28.00
2018-07-17T03:32:44.054Z,32.00
2018-07-17T03:33:44.028Z,32.00
2018-07-17T03:34:43.993Z,36.00
2018-07-17T03:35:43.958Z,44.00
2018-07-17T03:36:43.926Z,48.00
2018-07-17T03:37:43.896Z,52.00
2018-07-17T03:38:43.893Z,56.00
2018-07-17T03:39:43.836Z,60.00
2018-07-17T03:40:43.799Z,64.00
2018-07-17T03:41:43.781Z,68.00
2018-07-17T03:42:43.743Z,76.00
2018-07-17T03:43:43.711Z,80.00
2018-07-17T03:44:43.684Z,88.00
2018-07-17T03:45:43.648Z,96.00
2018-07-17T03:46:43.617Z,100.00
2018-07-17T03:47:43.584Z,112.00
2018-07-17T03:48:43.552Z,116.00
2018-07-17T03:49:43.521Z,124.00
2018-07-17T03:50:43.505Z,128.00
2018-07-17T03:51:43.462Z,140.00
2018-07-17T03:52:43.434Z,144.00
2018-07-17T03:53:43.420Z,152.00
2018-07-17T03:54:43.371Z,160.00
2018-07-17T03:55:43.333Z,172.00
2018-07-17T03:56:43.302Z,180.00
2018-07-17T03:57:43.278Z,192.00
2018-07-17T03:58:43.250Z,208.00
2018-07-17T03:59:43.204Z,220.00
2018-07-17T04:00:43.173Z,232.00
2018-07-17T04:01:43.150Z,244.00
2018-07-17T04:02:43.142Z,256.00
2018-07-17T04:03:43.087Z,272.00
2018-07-17T04:04:43.055Z,284.00
2018-07-17T04:05:43.021Z,300.00
2018-07-17T04:06:42.992Z,316.00
2018-07-17T04:07:42.957Z,336.00
2018-07-17T04:08:42.966Z,356.00
2018-07-17T04:09:42.898Z,372.00
2018-07-17T04:10:42.865Z,396.00
2018-07-17T04:11:42.834Z,412.00
2018-07-17T04:12:42.797Z,428.00
2018-07-17T04:13:42.766Z,444.00
2018-07-17T04:14:43.057Z,460.00
2018-07-17T04:15:42.705Z,472.00
2018-07-17T04:16:42.685Z,484.00
2018-07-17T04:17:42.644Z,492.00
2018-07-17T04:18:42.609Z,496.00
2018-07-17T04:19:42.582Z,504.00
2018-07-17T04:20:42.549Z,516.00
2018-07-17T04:21:42.520Z,528.00
2018-07-17T04:22:42.484Z,540.00
2018-07-17T04:23:42.463Z,560.00
2018-07-17T04:24:42.425Z,568.00
2018-07-17T04:25:42.390Z,588.00
2018-07-17T04:26:42.364Z,600.00
2018-07-17T04:27:42.333Z,612.00
2018-07-17T04:28:42.425Z,628.00
2018-07-17T04:29:42.316Z,676.00
2018-07-17T04:30:42.243Z,704.00
2018-07-17T04:31:42.205Z,736.00
2018-07-17T04:32:42.176Z,768.00
2018-07-17T04:33:42.145Z,760.00
2018-07-17T04:34:42.114Z,796.00
2018-07-17T04:35:42.080Z,848.00
2018-07-17T04:36:42.049Z,876.00
2018-07-17T04:37:42.033Z,912.00
2018-07-17T04:38:41.991Z,940.00
2018-07-17T04:39:41.960Z,960.00
2018-07-17T04:40:41.924Z,940.00
2018-07-17T04:41:41.896Z,964.00
2018-07-17T04:42:41.866Z,952.00
2018-07-17T04:43:41.889Z,952.00
2018-07-17T04:44:41.804Z,972.00
2018-07-17T04:45:41.765Z,1004.00
2018-07-17T04:46:41.741Z,1044.00
2018-07-17T04:47:41.773Z,1040.00
2018-07-17T04:48:41.681Z,1068.00
2018-07-17T04:49:41.673Z,1088.00
2018-07-17T04:50:41.615Z,1188.00
2018-07-17T04:51:41.585Z,1236.00
2018-07-17T04:52:41.557Z,1280.00
2018-07-17T04:53:41.574Z,1356.00
2018-07-17T04:54:41.490Z,1424.00
2018-07-17T04:55:41.468Z,1492.00
2018-07-17T04:56:41.429Z,1548.00
2018-07-17T04:57:41.394Z,1664.00
2018-07-17T04:58:41.369Z,1748.00
2018-07-17T04:59:41.335Z,1788.00
2018-07-17T05:00:41.302Z,1828.00
2018-07-17T05:01:41.360Z,1880.00
2018-07-17T05:02:41.255Z,1928.00
2018-07-17T05:03:41.212Z,2724.00
2018-07-17T05:04:41.182Z,2828.00
2018-07-17T05:05:41.151Z,2948.00
2018-07-17T05:06:41.115Z,3048.00
2018-07-17T05:07:41.095Z,3144.00
2018-07-17T05:08:41.087Z,3220.00
2018-07-17T05:09:41.028Z,3280.00
2018-07-17T05:10:40.998Z,3380.00
2018-07-17T05:11:40.967Z,3488.00
2018-07-17T05:12:40.942Z,3604.00
2018-07-17T05:13:40.935Z,3668.00
2018-07-17T05:14:40.882Z,3760.00
2018-07-17T05:15:40.853Z,3852.00
2018-07-17T05:16:40.827Z,3940.00
2018-07-17T05:17:40.793Z,4036.00
2018-07-17T05:18:40.752Z,4120.00
2018-07-17T05:19:40.722Z,4164.00
2018-07-17T05:20:40.694Z,4224.00
2018-07-17T05:21:40.669Z,4280.00
2018-07-17T05:22:40.634Z,4328.00
2018-07-17T05:23:40.608Z,4380.00
2018-07-17T05:24:40.575Z,4436.00
2018-07-17T05:25:40.548Z,4500.00
2018-07-17T05:26:40.521Z,4528.00
2018-07-17T05:27:40.492Z,4548.00
2018-07-17T05:28:40.460Z,4624.00
2018-07-17T05:29:40.430Z,4692.00
2018-07-17T05:30:40.394Z,4768.00
2018-07-17T05:31:40.372Z,4816.00
2018-07-17T05:32:40.333Z,4872.00
2018-07-17T05:33:40.314Z,4928.00
2018-07-17T05:34:40.285Z,5020.00
2018-07-17T05:35:40.256Z,5096.00
2018-07-17T05:36:40.224Z,5188.00
2018-07-17T05:37:40.194Z,5236.00
2018-07-17T05:38:40.164Z,5316.00
2018-07-17T05:39:40.135Z,5388.00
2018-07-17T05:40:40.104Z,5488.00
2018-07-17T05:41:40.081Z,5460.00
2018-07-17T05:42:40.048Z,5592.00
2018-07-17T05:43:40.018Z,5628.00
2018-07-17T05:44:39.986Z,5772.00
2018-07-17T05:45:39.961Z,5784.00
2018-07-17T05:46:39.933Z,5752.00
2018-07-17T05:47:39.900Z,5916.00
2018-07-17T05:48:39.879Z,6132.00
2018-07-17T05:49:39.842Z,6280.00
2018-07-17T05:50:39.820Z,6320.00
2018-07-17T05:51:39.788Z,5952.00
2018-07-17T05:52:39.759Z,5840.00
2018-07-17T05:53:39.733Z,5516.00
2018-07-17T05:54:39.704Z,5140.00
2018-07-17T05:55:39.675Z,5292.00
2018-07-17T05:56:39.653Z,5668.00
2018-07-17T05:57:39.616Z,3948.00
2018-07-17T05:58:39.585Z,3220.00
2018-07-17T05:59:39.562Z,3264.00
2018-07-17T06:00:39.532Z,3380.00
2018-07-17T06:01:39.503Z,2964.00
2018-07-17T06:02:39.474Z,2952.00
2018-07-17T06:03:39.447Z,2536.00
2018-07-17T06:04:39.419Z,2404.00
2018-07-17T06:05:39.390Z,2252.00
2018-07-17T06:06:39.510Z,2156.00
2018-07-17T06:07:39.331Z,2064.00
2018-07-17T06:08:39.303Z,1996.00
2018-07-17T06:09:39.281Z,1948.00
2018-07-17T06:10:39.263Z,1908.00
2018-07-17T06:11:39.218Z,1880.00
2018-07-17T06:12:39.190Z,1856.00
2018-07-17T06:13:39.162Z,1840.00
2018-07-17T06:14:39.132Z,1844.00
2018-07-17T06:15:39.110Z,1852.00
2018-07-17T06:16:39.092Z,1864.00
2018-07-17T06:17:39.047Z,1888.00
2018-07-17T06:18:39.019Z,1916.00
2018-07-17T06:19:38.991Z,1940.00
2018-07-17T06:20:38.962Z,1964.00
2018-07-17T06:21:38.932Z,1992.00
2018-07-17T06:22:38.956Z,2020.00
2018-07-17T06:23:38.873Z,2052.00
2018-07-17T06:24:38.839Z,2088.00
2018-07-17T06:25:38.815Z,2108.00
2018-07-17T06:26:38.786Z,2124.00
2018-07-17T06:27:39.013Z,2140.00
2018-07-17T06:28:38.729Z,2160.00
2018-07-17T06:29:38.698Z,1972.00
2018-07-17T06:30:38.670Z,2180.00
2018-07-17T06:31:38.641Z,2192.00
2018-07-17T06:32:38.610Z,2208.00
2018-07-17T06:33:38.583Z,2224.00
2018-07-17T06:34:38.553Z,2244.00
2018-07-17T06:35:38.524Z,2272.00
2018-07-17T06:36:38.491Z,2304.00
2018-07-17T06:37:38.470Z,2308.00
2018-07-17T06:38:38.435Z,2332.00
2018-07-17T06:39:38.403Z,2348.00
2018-07-17T06:40:38.373Z,2376.00
2018-07-17T06:41:38.366Z,2420.00
2018-07-17T06:42:38.315Z,2484.00
2018-07-17T06:43:38.287Z,2568.00
2018-07-17T06:44:38.332Z,2660.00
2018-07-17T06:45:38.230Z,2768.00
2018-07-17T06:46:38.279Z,2888.00
2018-07-17T06:47:38.287Z,3020.00
2018-07-17T06:48:38.142Z,3192.00
2018-07-17T06:49:38.109Z,3428.00
2018-07-17T06:50:38.246Z,3548.00
2018-07-17T06:51:38.055Z,5432.00
2018-07-17T06:52:38.028Z,5800.00
2018-07-17T06:53:37.997Z,4604.00
2018-07-17T06:54:37.964Z,4572.00
2018-07-17T06:55:37.938Z,5500.00
2018-07-17T06:56:37.903Z,3900.00
2018-07-17T06:57:37.879Z,3980.00
2018-07-17T06:58:37.851Z,4124.00
2018-07-17T06:59:37.818Z,4136.00
2018-07-17T07:00:37.802Z,3976.00
2018-07-17T07:01:37.765Z,3956.00
2018-07-17T07:02:37.732Z,4004.00
2018-07-17T07:03:37.707Z,4488.00
2018-07-17T07:04:37.679Z,3980.00
2018-07-17T07:05:37.649Z,3884.00
2018-07-17T07:06:37.617Z,3800.00
2018-07-17T07:07:37.588Z,3696.00
2018-07-17T07:08:37.563Z,3580.00
2018-07-17T07:09:37.531Z,3504.00
2018-07-17T07:10:37.506Z,3452.00
2018-07-17T07:11:37.475Z,3424.00
2018-07-17T07:12:37.446Z,3420.00
2018-07-17T07:13:37.419Z,3468.00
2018-07-17T07:14:37.384Z,3436.00
2018-07-17T07:15:37.370Z,3396.00
2018-07-17T07:16:37.333Z,3368.00
2018-07-17T07:17:37.299Z,3360.00
2018-07-17T07:18:37.270Z,3392.00
2018-07-17T07:19:37.247Z,3460.00
2018-07-17T07:20:37.213Z,3568.00
2018-07-17T07:21:37.189Z,3736.00
2018-07-17T07:22:37.157Z,4096.00
2018-07-17T07:23:37.125Z,4268.00
2018-07-17T07:24:37.097Z,4856.00
2018-07-17T07:25:37.071Z,4692.00
2018-07-17T07:26:37.044Z,5716.00
2018-07-17T07:27:37.015Z,4328.00
2018-07-17T07:28:36.999Z,4272.00
2018-07-17T07:29:36.958Z,4260.00
2018-07-17T07:30:36.927Z,4224.00
2018-07-17T07:31:36.902Z,4268.00
2018-07-17T07:32:36.871Z,4384.00
2018-07-17T07:33:36.844Z,4572.00
2018-07-17T07:34:36.820Z,4940.00
2018-07-17T07:35:37.525Z,4940.00
2018-07-17T07:36:36.761Z,5084.00
2018-07-17T07:37:36.840Z,5312.00
2018-07-17T07:38:36.701Z,6588.00
2018-07-17T07:39:36.675Z,9916.00
2018-07-17T07:40:36.656Z,10468.00
2018-07-17T07:41:36.615Z,10020.00
2018-07-17T07:42:36.590Z,9888.00
2018-07-17T07:43:36.841Z,9420.00
2018-07-17T07:44:36.530Z,8332.00
2018-07-17T07:45:36.506Z,9948.00
2018-07-17T07:46:36.472Z,7616.00
2018-07-17T07:47:36.458Z,8620.00
2018-07-17T07:48:36.414Z,9028.00
2018-07-17T07:49:36.389Z,8340.00
2018-07-17T07:50:36.361Z,9304.00
2018-07-17T07:51:36.332Z,8416.00
2018-07-17T07:52:36.307Z,10964.00
2018-07-17T07:53:36.285Z,8664.00
2018-07-17T07:54:36.249Z,7976.00
2018-07-17T07:55:36.255Z,10124.00
2018-07-17T07:56:36.196Z,11128.00
2018-07-17T07:57:36.171Z,11648.00
2018-07-17T07:58:36.145Z,13164.00
2018-07-17T07:59:36.115Z,13172.00
2018-07-17T08:00:36.108Z,13248.00
2018-07-17T08:01:36.507Z,13424.00
2018-07-17T08:02:36.035Z,13288.00
2018-07-17T08:03:36.057Z,12064.00
2018-07-17T08:04:35.995Z,12032.00
2018-07-17T08:05:35.955Z,12628.00
2018-07-17T08:06:35.927Z,12316.00
2018-07-17T08:07:35.909Z,12704.00
2018-07-17T08:08:35.887Z,12620.00
2018-07-17T08:09:35.857Z,11648.00
2018-07-17T08:10:35.829Z,12824.00
2018-07-17T08:11:35.882Z,8544.00
2018-07-17T08:12:35.776Z,13752.00
2018-07-17T08:13:35.872Z,9180.00
2018-07-17T08:14:35.733Z,14084.00
2018-07-17T08:15:35.715Z,13952.00
2018-07-17T08:16:36.025Z,14124.00
2018-07-17T08:17:35.650Z,14352.00
2018-07-17T08:18:35.622Z,13780.00
2018-07-17T08:19:35.598Z,13476.00
2018-07-17T08:20:35.572Z,13924.00
2018-07-17T08:21:35.591Z,13652.00
2018-07-17T08:22:35.523Z,10440.00
2018-07-17T08:23:35.498Z,11444.00
2018-07-17T08:24:35.472Z,11196.00
2018-07-17T08:25:35.449Z,10256.00
2018-07-17T08:26:35.426Z,10644.00
2018-07-17T08:27:35.403Z,8788.00
2018-07-17T08:28:35.375Z,6320.00
2018-07-17T08:29:35.412Z,6220.00
2018-07-17T08:30:35.326Z,6324.00
2018-07-17T08:31:35.297Z,6588.00
2018-07-17T08:32:35.272Z,7476.00
2018-07-17T08:33:35.251Z,7700.00
2018-07-17T08:34:35.229Z,7224.00
2018-07-17T08:35:35.195Z,9164.00
2018-07-17T08:36:35.174Z,7692.00
2018-07-17T08:37:35.157Z,7332.00
2018-07-17T08:38:35.121Z,8700.00
2018-07-17T08:39:35.099Z,9080.00
2018-07-17T08:40:35.071Z,12228.00
2018-07-17T08:41:35.047Z,12732.00
2018-07-17T08:42:35.021Z,12404.00
2018-07-17T08:43:35.071Z,8864.00
2018-07-17T08:44:34.968Z,9520.00
2018-07-17T08:45:34.953Z,14528.00
2018-07-17T08:46:34.922Z,10936.00
2018-07-17T08:47:34.893Z,14400.00
2018-07-17T08:48:34.873Z,13612.00
2018-07-17T08:49:34.839Z,10420.00
2018-07-17T08:50:34.815Z,14432.00
2018-07-17T08:51:34.793Z,16832.00
2018-07-17T08:52:34.768Z,5896.00
2018-07-17T08:53:34.747Z,5052.00
2018-07-17T08:54:34.771Z,4968.00
2018-07-17T08:55:34.691Z,10428.00
2018-07-17T08:56:34.664Z,15552.00
2018-07-17T08:57:34.644Z,16000.00
2018-07-17T08:58:34.624Z,16000.00
2018-07-17T08:59:34.592Z,15968.00
2018-07-17T09:00:34.658Z,15808.00
2018-07-17T09:01:34.552Z,14620.00
2018-07-17T09:02:34.513Z,14120.00
2018-07-17T09:03:34.487Z,14036.00
2018-07-17T09:04:34.468Z,14208.00
2018-07-17T09:05:34.448Z,14608.00
2018-07-17T09:06:34.413Z,14496.00
2018-07-17T09:07:34.387Z,14172.00
2018-07-17T09:08:34.369Z,14048.00
2018-07-17T09:09:34.370Z,13968.00
2018-07-17T09:10:34.320Z,13900.00
2018-07-17T09:11:34.293Z,13816.00
2018-07-17T09:12:34.286Z,13920.00
2018-07-17T09:13:34.246Z,14240.00
2018-07-17T09:14:34.221Z,14320.00
2018-07-17T09:15:34.196Z,14476.00
2018-07-17T09:16:34.173Z,14132.00
2018-07-17T09:17:34.149Z,14232.00
2018-07-17T09:18:34.120Z,14196.00
2018-07-17T09:19:34.134Z,14208.00
2018-07-17T09:20:34.078Z,14168.00
2018-07-17T09:21:34.063Z,14252.00
2018-07-17T09:22:34.033Z,14344.00
2018-07-17T09:23:34.002Z,15016.00
2018-07-17T09:24:33.980Z,14112.00
2018-07-17T09:25:33.952Z,11644.00
2018-07-17T09:26:33.940Z,8104.00
2018-07-17T09:27:33.904Z,8212.00
2018-07-17T09:28:33.889Z,11260.00
2018-07-17T09:29:34.368Z,6792.00
2018-07-17T09:30:33.837Z,6576.00
2018-07-17T09:31:33.812Z,7148.00
2018-07-17T09:32:33.801Z,7400.00
2018-07-17T09:33:33.796Z,9028.00
2018-07-17T09:34:33.740Z,7500.00
2018-07-17T09:35:33.715Z,7272.00
2018-07-17T09:36:33.688Z,6680.00
2018-07-17T09:37:33.667Z,10152.00
2018-07-17T09:38:33.657Z,6656.00
2018-07-17T09:39:33.614Z,6184.00
2018-07-17T09:40:33.699Z,6064.00
2018-07-17T09:41:33.566Z,6036.00
2018-07-17T09:42:33.542Z,6172.00
2018-07-17T09:43:33.519Z,6348.00
2018-07-17T09:44:33.500Z,6812.00
2018-07-17T09:45:33.467Z,8104.00
2018-07-17T09:46:33.441Z,8388.00
2018-07-17T09:47:33.419Z,11956.00
2018-07-17T09:48:33.393Z,16640.00
2018-07-17T09:49:33.370Z,16416.00
2018-07-17T09:50:33.341Z,16352.00
2018-07-17T09:51:33.330Z,16288.00
2018-07-17T09:52:33.295Z,16096.00
2018-07-17T09:53:33.266Z,16000.00
2018-07-17T09:54:33.251Z,16032.00
2018-07-17T09:55:33.237Z,16000.00
2018-07-17T09:56:33.198Z,15936.00
2018-07-17T09:57:33.171Z,15256.00
2018-07-17T09:58:33.161Z,15936.00
2018-07-17T09:59:33.123Z,15456.00
2018-07-17T10:00:33.106Z,15544.00
2018-07-17T10:01:33.075Z,15776.00
2018-07-17T10:02:33.053Z,15840.00
2018-07-17T10:03:33.028Z,16000.00
2018-07-17T10:04:33.013Z,16160.00
2018-07-17T10:05:32.980Z,16288.00
2018-07-17T10:06:32.957Z,16608.00
2018-07-17T10:07:32.938Z,10640.00
2018-07-17T10:08:32.913Z,16448.00
2018-07-17T10:09:32.930Z,17664.00
2018-07-17T10:10:32.868Z,15744.00
2018-07-17T10:11:32.859Z,16992.00
2018-07-17T10:12:32.825Z,11336.00
2018-07-17T10:13:32.800Z,9816.00
2018-07-17T10:14:32.875Z,11196.00
2018-07-17T10:15:32.756Z,9976.00
2018-07-17T10:16:32.731Z,15904.00
2018-07-17T10:17:32.709Z,9292.00
2018-07-17T10:18:32.687Z,14584.00
2018-07-17T10:19:32.673Z,15168.00
2018-07-17T10:20:32.644Z,7612.00
2018-07-17T10:21:32.615Z,7024.00
2018-07-17T10:22:32.589Z,6860.00
2018-07-17T10:23:32.571Z,6780.00
2018-07-17T10:24:32.545Z,6840.00
2018-07-17T10:25:32.533Z,7076.00
2018-07-17T10:26:32.510Z,7376.00
2018-07-17T10:27:32.474Z,7692.00
2018-07-17T10:28:32.457Z,9900.00
2018-07-17T10:29:32.428Z,8716.00
2018-07-17T10:30:32.406Z,15028.00
2018-07-17T10:31:32.411Z,16544.00
2018-07-17T10:32:32.355Z,13268.00
2018-07-17T10:33:32.329Z,14960.00
2018-07-17T10:34:32.315Z,9764.00
2018-07-17T10:35:32.280Z,10060.00
2018-07-17T10:36:32.275Z,10436.00
2018-07-17T10:37:32.235Z,15904.00
2018-07-17T10:38:32.294Z,14864.00
2018-07-17T10:39:32.192Z,15520.00
2018-07-17T10:40:32.167Z,10488.00
2018-07-17T10:41:32.141Z,11772.00
2018-07-17T10:42:32.122Z,7708.00
2018-07-17T10:43:32.098Z,6552.00
2018-07-17T10:44:32.080Z,12028.00
2018-07-17T10:45:32.045Z,7172.00
2018-07-17T10:46:32.026Z,7004.00
2018-07-17T10:47:32.068Z,8588.00
2018-07-17T10:48:31.975Z,8664.00
2018-07-17T10:49:31.952Z,11888.00
2018-07-17T10:50:31.927Z,15936.00
2018-07-17T10:51:32.633Z,12188.00
2018-07-17T10:52:31.902Z,8472.00
2018-07-17T10:53:31.857Z,7596.00
2018-07-17T10:54:31.830Z,7188.00
2018-07-17T10:55:31.809Z,7036.00
2018-07-17T10:56:31.793Z,6968.00
2018-07-17T10:57:31.766Z,7024.00
2018-07-17T10:58:31.737Z,7280.00
2018-07-17T10:59:31.708Z,7680.00
2018-07-17T11:00:31.684Z,7352.00
2018-07-17T11:01:31.666Z,7656.00
2018-07-17T11:02:31.639Z,7720.00
2018-07-17T11:03:31.616Z,8544.00
2018-07-17T11:04:31.589Z,9376.00
2018-07-17T11:05:31.579Z,8408.00
2018-07-17T11:06:31.539Z,8680.00
2018-07-17T11:07:31.550Z,12972.00
2018-07-17T11:08:31.608Z,14372.00
2018-07-17T11:09:31.467Z,9056.00
2018-07-17T11:10:31.443Z,9460.00
2018-07-17T11:11:31.415Z,13088.00
2018-07-17T11:12:31.394Z,13132.00
2018-07-17T11:13:31.372Z,15936.00
2018-07-17T11:14:32.124Z,16384.00
2018-07-17T11:15:31.323Z,11460.00
2018-07-17T11:16:31.293Z,12008.00
2018-07-17T11:17:31.268Z,8456.00
2018-07-17T11:18:31.245Z,8180.00
2018-07-17T11:19:31.226Z,9272.00
2018-07-17T11:20:31.202Z,13372.00
2018-07-17T11:21:31.170Z,12756.00
2018-07-17T11:22:31.151Z,15208.00
2018-07-17T11:23:31.120Z,14396.00
2018-07-17T11:24:31.096Z,15272.00
2018-07-17T11:25:31.079Z,13884.00
2018-07-17T11:26:31.058Z,14936.00
2018-07-17T11:27:31.023Z,14660.00
2018-07-17T11:28:31.004Z,14572.00
2018-07-17T11:29:30.979Z,14196.00
2018-07-17T11:30:31.086Z,14280.00
2018-07-17T11:31:30.936Z,14268.00
2018-07-17T11:32:30.914Z,14304.00
2018-07-17T11:33:30.889Z,14288.00
2018-07-17T11:34:30.872Z,14336.00
2018-07-17T11:35:30.846Z,14400.00
2018-07-17T11:36:30.822Z,12188.00
2018-07-17T11:37:30.811Z,13240.00
2018-07-17T11:38:30.777Z,14196.00
2018-07-17T11:39:30.756Z,10132.00
2018-07-17T11:40:30.732Z,9568.00
2018-07-17T11:41:30.712Z,9596.00
2018-07-17T11:42:30.687Z,10028.00
2018-07-17T11:43:30.662Z,14436.00
2018-07-17T11:44:30.638Z,14360.00
2018-07-17T11:45:30.627Z,14316.00
2018-07-17T11:46:30.596Z,14312.00
2018-07-17T11:47:30.577Z,14372.00
2018-07-17T11:48:30.548Z,14360.00
2018-07-17T11:49:30.524Z,14524.00
2018-07-17T11:50:30.504Z,15012.00
2018-07-17T11:51:30.477Z,14984.00
2018-07-17T11:52:30.466Z,15104.00
2018-07-17T11:53:30.437Z,14612.00
2018-07-17T11:54:30.412Z,14900.00
2018-07-17T11:55:30.414Z,13680.00
2018-07-17T11:56:30.392Z,10832.00
2018-07-17T11:57:30.347Z,12020.00
2018-07-17T11:58:30.331Z,8652.00
2018-07-17T11:59:30.443Z,15456.00
2018-07-17T12:00:30.277Z,15456.00
2018-07-17T12:01:30.294Z,15680.00
2018-07-17T12:02:30.247Z,15648.00
2018-07-17T12:03:30.214Z,15904.00
2018-07-17T12:04:30.193Z,15904.00
2018-07-17T12:05:30.209Z,15648.00
2018-07-17T12:06:30.147Z,15232.00
2018-07-17T12:07:30.128Z,15136.00
2018-07-17T12:08:30.106Z,13616.00
2018-07-17T12:09:30.142Z,14496.00
2018-07-17T12:10:30.081Z,14592.00
2018-07-17T12:11:30.036Z,7792.00
2018-07-17T12:12:30.016Z,7840.00
2018-07-17T12:13:29.995Z,8516.00
2018-07-17T12:14:29.969Z,14944.00
2018-07-17T12:15:29.947Z,9584.00
2018-07-17T12:16:29.940Z,11816.00
2018-07-17T12:17:29.953Z,15936.00
2018-07-17T12:18:29.882Z,10812.00
2018-07-17T12:19:29.857Z,10796.00
2018-07-17T12:20:30.075Z,11400.00
2018-07-17T12:21:29.846Z,13704.00